Time;durP1;ratioP1;P1;durP2;ratioP2;P2;SDS_P1;SDS_P2;PMS_P1;PMS_P2;Temp;Humidity;BMP_temperature;BMP_pressure;BME280_temperature;BME280_humidity;BME280_pressure;Samples;Min_cycle;Max_cycle;Signal;HPM_P1;HPM_P2
2023/06/28 00:00:12;;;;;;;3.43;2.00;;;22.10;69.10;;;;;;5016664;28;20199;-70
2023/06/28 00:02:37;;;;;;;3.60;2.07;;;21.90;69.10;;;;;;5016074;28;20184;-69
2023/06/28 00:05:07;;;;;;;2.77;2.17;;;21.80;69.40;;;;;;5016239;28;20940;-70
2023/06/28 00:07:33;;;;;;;2.90;1.80;;;21.80;69.50;;;;;;5016375;28;20585;-70
2023/06/28 00:09:59;;;;;;;2.83;2.00;;;21.70;69.70;;;;;;5015997;28;20497;-70
2023/06/28 00:12:26;;;;;;;4.03;2.10;;;21.60;70.00;;;;;;5016004;28;20565;-69
2023/06/28 00:14:53;;;;;;;4.33;2.70;;;21.60;70.30;;;;;;5016637;28;20180;-70
2023/06/28 00:17:19;;;;;;;3.77;2.63;;;21.60;70.50;;;;;;5016416;28;20460;-70
2023/06/28 00:19:48;;;;;;;4.30;2.30;;;21.70;70.30;;;;;;5015964;28;20446;-70
2023/06/28 00:22:17;;;;;;;3.40;2.10;;;21.70;70.60;;;;;;5018566;28;20434;-70
2023/06/28 00:24:42;;;;;;;4.43;2.17;;;21.70;70.50;;;;;;5016524;28;20414;-69
2023/06/28 00:27:11;;;;;;;5.13;2.00;;;21.50;71.00;;;;;;5018021;28;20399;-70
2023/06/28 00:29:37;;;;;;;3.43;2.23;;;21.50;71.40;;;;;;5016142;28;20188;-70
2023/06/28 00:32:03;;;;;;;4.67;2.73;;;21.50;71.40;;;;;;5016741;28;20603;-68
2023/06/28 00:34:28;;;;;;;2.30;2.10;;;21.40;71.50;;;;;;5015613;28;20418;-70
2023/06/28 00:36:54;;;;;;;2.33;2.13;;;21.40;71.90;;;;;;5015483;28;20442;-70
2023/06/28 00:39:19;;;;;;;3.57;2.23;;;21.60;72.00;;;;;;5015578;28;20564;-70
2023/06/28 00:41:45;;;;;;;3.30;1.93;;;21.60;71.60;;;;;;5015394;28;20192;-70
2023/06/28 00:44:10;;;;;;;5.73;2.00;;;21.50;71.90;;;;;;5016151;28;20251;-69
2023/06/28 00:46:36;;;;;;;2.60;2.40;;;21.60;72.00;;;;;;5014848;28;20172;-70
2023/06/28 00:49:02;;;;;;;5.03;2.37;;;21.50;72.00;;;;;;5017780;28;20259;-69
2023/06/28 00:51:30;;;;;;;3.57;2.43;;;21.40;72.70;;;;;;5015414;28;20207;-69
2023/06/28 00:53:56;;;;;;;4.70;2.77;;;21.40;72.90;;;;;;5014765;28;20404;-70
2023/06/28 00:56:24;;;;;;;5.40;2.50;;;21.40;72.90;;;;;;5015008;28;20910;-70
2023/06/28 00:58:51;;;;;;;4.30;2.70;;;21.40;72.90;;;;;;5015441;28;20501;-70
2023/06/28 01:01:17;;;;;;;3.90;2.30;;;21.30;73.20;;;;;;5015562;28;20437;-70
2023/06/28 01:03:42;;;;;;;3.63;2.40;;;21.40;73.10;;;;;;5015634;28;20435;-68
2023/06/28 01:06:12;;;;;;;5.47;2.40;;;21.30;73.40;;;;;;5015944;28;20435;-70
2023/06/28 01:08:41;;;;;;;7.97;2.97;;;21.20;73.70;;;;;;5013832;28;20187;-69
2023/06/28 01:11:08;;;;;;;6.03;2.30;;;21.00;74.40;;;;;;5015566;28;20410;-70
2023/06/28 01:13:35;;;;;;;5.63;2.60;;;20.80;75.10;;;;;;5015234;28;20466;-69
2023/06/28 01:16:01;;;;;;;8.93;2.70;;;20.90;75.40;;;;;;5014882;28;20410;-69
2023/06/28 01:18:28;;;;;;;3.00;2.10;;;20.90;75.20;;;;;;5015050;28;20403;-71
2023/06/28 01:20:54;;;;;;;4.63;2.40;;;20.80;75.70;;;;;;5013553;28;20494;-69
2023/06/28 01:23:25;;;;;;;4.33;2.50;;;21.00;75.70;;;;;;5015194;28;20457;-70
2023/06/28 01:25:53;;;;;;;6.93;2.70;;;20.80;76.10;;;;;;5014427;28;20422;-69
2023/06/28 01:28:19;;;;;;;4.40;2.50;;;20.70;76.70;;;;;;5015117;28;20411;-69
2023/06/28 01:30:48;;;;;;;3.67;2.70;;;20.50;77.50;;;;;;5014752;28;20399;-70
2023/06/28 01:33:15;;;;;;;4.00;2.60;;;20.50;78.00;;;;;;5014626;28;20423;-70
2023/06/28 01:35:40;;;;;;;6.13;2.60;;;20.70;77.90;;;;;;5015169;28;20472;-70
2023/06/28 01:38:08;;;;;;;3.63;2.30;;;20.70;77.60;;;;;;5014944;28;20497;-70
2023/06/28 01:40:36;;;;;;;5.80;2.40;;;20.80;77.60;;;;;;5014088;28;20191;-70
2023/06/28 01:43:05;;;;;;;4.20;2.40;;;20.70;77.70;;;;;;5014409;28;20419;-70
2023/06/28 01:45:31;;;;;;;5.67;2.67;;;20.60;78.90;;;;;;5015132;28;20434;-70
2023/06/28 01:47:57;;;;;;;8.50;2.80;;;20.50;79.00;;;;;;5014384;28;20493;-70
2023/06/28 01:50:23;;;;;;;4.83;2.80;;;20.60;79.50;;;;;;5014647;28;20834;-69
2023/06/28 01:52:48;;;;;;;4.30;2.60;;;20.90;79.60;;;;;;5014181;28;20211;-69
2023/06/28 01:55:14;;;;;;;4.73;2.80;;;21.00;78.90;;;;;;5014014;28;20230;-71
2023/06/28 01:57:40;;;;;;;6.07;2.77;;;21.00;80.40;;;;;;5014553;28;20168;-69
2023/06/28 02:00:08;;;;;;;4.10;2.60;;;21.00;81.10;;;;;;5014015;28;20595;-70
2023/06/28 02:02:35;;;;;;;3.57;2.37;;;21.10;85.20;;;;;;5014176;28;20196;-71
2023/06/28 02:05:00;;;;;;;4.27;2.67;;;21.20;86.30;;;;;;5014486;28;20442;-70
2023/06/28 02:07:26;;;;;;;2.83;2.63;;;21.30;86.80;;;;;;5013811;28;20427;-70
2023/06/28 02:09:52;;;;;;;3.00;2.30;;;21.00;85.50;;;;;;5013370;28;20283;-70
2023/06/28 02:12:17;;;;;;;4.10;2.70;;;20.70;85.00;;;;;;5013724;28;20667;-69
2023/06/28 02:14:43;;;;;;;3.40;2.70;;;20.70;86.60;;;;;;5012626;28;20180;-70
2023/06/28 02:17:13;;;;;;;4.70;3.03;;;20.80;85.60;;;;;;5013637;28;20179;-70
2023/06/28 02:19:42;;;;;;;3.63;2.20;;;20.70;89.20;;;;;;5013488;28;20235;-69
2023/06/28 02:22:08;;;;;;;3.53;2.40;;;20.40;90.40;;;;;;5013851;28;20419;-70
2023/06/28 02:24:34;;;;;;;6.67;2.63;;;20.30;90.90;;;;;;5013371;28;20472;-71
2023/06/28 02:27:00;;;;;;;3.97;2.70;;;20.20;91.50;;;;;;5013199;28;20586;-70
2023/06/28 02:29:26;;;;;;;6.00;3.20;;;20.00;92.00;;;;;;5013816;28;20406;-69
2023/06/28 02:31:51;;;;;;;3.37;2.90;;;19.70;92.10;;;;;;5013302;28;20192;-70
2023/06/28 02:34:17;;;;;;;5.00;3.30;;;19.90;91.90;;;;;;5013421;28;20643;-70
2023/06/28 02:36:43;;;;;;;4.47;3.00;;;19.90;91.60;;;;;;5013870;28;20172;-69
2023/06/28 02:39:08;;;;;;;4.33;3.00;;;19.90;91.40;;;;;;5013557;28;20561;-70
2023/06/28 02:41:34;;;;;;;3.17;2.30;;;19.90;91.30;;;;;;5013202;28;20267;-70
2023/06/28 02:43:59;;;;;;;5.20;2.67;;;19.80;91.20;;;;;;5012996;28;20226;-70
2023/06/28 02:46:25;;;;;;;3.43;2.87;;;19.90;91.60;;;;;;5013668;28;20271;-70
2023/06/28 02:48:51;;;;;;;4.33;2.80;;;20.10;91.40;;;;;;5013245;28;20168;-71
2023/06/28 02:51:16;;;;;;;4.60;3.07;;;20.10;91.20;;;;;;5012904;28;20662;-70
2023/06/28 02:53:42;;;;;;;4.13;2.83;;;20.10;91.20;;;;;;5013878;28;20168;-70
2023/06/28 02:56:12;;;;;;;5.30;3.17;;;20.20;91.10;;;;;;5014104;28;20572;-70
2023/06/28 02:58:38;;;;;;;5.97;2.60;;;20.20;91.60;;;;;;5013135;28;20487;-69
2023/06/28 03:01:03;;;;;;;3.93;2.80;;;20.20;91.50;;;;;;5012953;28;20494;-69
2023/06/28 03:03:33;;;;;;;4.77;2.77;;;20.10;91.40;;;;;;5013086;28;20260;-69
2023/06/28 03:05:59;;;;;;;3.10;2.90;;;20.00;91.10;;;;;;5013290;28;20650;-69
2023/06/28 03:08:24;;;;;;;3.97;2.70;;;20.00;91.40;;;;;;5013548;28;20552;-69
2023/06/28 03:10:50;;;;;;;3.37;2.20;;;20.00;91.40;;;;;;5012520;28;20254;-70
2023/06/28 03:13:15;;;;;;;5.10;2.77;;;19.90;91.50;;;;;;5012736;28;20191;-69
2023/06/28 03:15:41;;;;;;;5.37;3.03;;;19.90;92.00;;;;;;5012716;28;20269;-70
2023/06/28 03:18:07;;;;;;;3.63;2.30;;;19.90;91.90;;;;;;5011547;28;20172;-71
2023/06/28 03:20:32;;;;;;;3.80;2.27;;;19.80;92.30;;;;;;5011191;28;20200;-71
2023/06/28 03:22:58;;;;;;;4.53;2.83;;;19.90;92.30;;;;;;5012708;28;20188;-71
2023/06/28 03:25:23;;;;;;;5.53;2.77;;;20.00;92.50;;;;;;5012666;28;20179;-70
2023/06/28 03:27:49;;;;;;;5.17;3.00;;;20.00;92.60;;;;;;5012780;28;20221;-71
2023/06/28 03:30:15;;;;;;;2.80;2.40;;;20.00;92.40;;;;;;5012965;28;20210;-70
2023/06/28 03:32:40;;;;;;;4.33;2.60;;;20.00;92.70;;;;;;5015725;28;20210;-70
2023/06/28 03:35:06;;;;;;;3.70;2.77;;;20.10;92.60;;;;;;5016382;28;20846;-70
2023/06/28 03:37:33;;;;;;;3.73;2.57;;;20.10;92.70;;;;;;5016628;28;20175;-70
2023/06/28 03:39:59;;;;;;;3.80;2.73;;;19.90;92.50;;;;;;5016241;28;20474;-70
2023/06/28 03:42:24;;;;;;;4.63;2.97;;;19.70;92.70;;;;;;5016497;28;20481;-70
2023/06/28 03:44:50;;;;;;;4.60;3.60;;;19.70;93.00;;;;;;5016920;28;20243;-70
2023/06/28 03:47:15;;;;;;;3.70;2.73;;;19.50;93.20;;;;;;5016545;28;20172;-70
2023/06/28 03:49:41;;;;;;;4.20;3.20;;;19.60;93.50;;;;;;5016492;28;20184;-70
2023/06/28 03:52:07;;;;;;;3.70;2.70;;;19.50;93.40;;;;;;5016446;28;20211;-70
2023/06/28 03:54:32;;;;;;;3.60;2.87;;;19.60;93.50;;;;;;5015415;28;21395;-70
2023/06/28 03:56:58;;;;;;;3.87;2.70;;;19.60;93.40;;;;;;5016319;28;20406;-70
2023/06/28 03:59:24;;;;;;;3.43;2.30;;;19.50;93.70;;;;;;5016169;28;20286;-70
2023/06/28 04:01:49;;;;;;;4.07;2.57;;;19.40;94.00;;;;;;5016221;28;20233;-70
2023/06/28 04:04:16;;;;;;;3.53;2.63;;;19.40;94.20;;;;;;5016217;28;20196;-70
2023/06/28 04:06:42;;;;;;;5.00;2.97;;;19.40;94.40;;;;;;5016005;28;20246;-70
2023/06/28 04:09:08;;;;;;;4.90;2.87;;;19.30;94.70;;;;;;5015734;28;20457;-70
2023/06/28 04:11:33;;;;;;;4.17;3.00;;;19.20;95.20;;;;;;5015746;28;20605;-70
2023/06/28 04:13:59;;;;;;;5.10;3.07;;;19.30;95.10;;;;;;5016019;28;20434;-70
2023/06/28 04:16:25;;;;;;;5.07;3.20;;;19.30;95.40;;;;;;5015940;28;20683;-70
2023/06/28 04:18:52;;;;;;;5.10;2.93;;;19.20;95.40;;;;;;5015695;28;20168;-69
2023/06/28 04:21:18;;;;;;;5.90;3.00;;;19.30;95.70;;;;;;5015842;28;20204;-70
2023/06/28 04:23:44;;;;;;;5.03;2.97;;;19.20;95.80;;;;;;5015726;28;20403;-70
2023/06/28 04:26:10;;;;;;;5.70;3.23;;;19.20;96.10;;;;;;5015236;28;20415;-70
2023/06/28 04:28:36;;;;;;;2.97;2.60;;;19.40;96.00;;;;;;5015368;28;20160;-69
2023/06/28 04:31:02;;;;;;;3.50;2.83;;;19.40;95.90;;;;;;5015921;28;20192;-70
2023/06/28 04:33:29;;;;;;;3.60;2.83;;;19.50;96.10;;;;;;5015947;28;20574;-70
2023/06/28 04:35:56;;;;;;;4.63;3.03;;;19.60;95.90;;;;;;5016523;28;20403;-70
2023/06/28 04:38:22;;;;;;;3.23;2.70;;;19.70;95.70;;;;;;5016276;28;20448;-70
2023/06/28 04:40:49;;;;;;;4.43;3.27;;;19.70;95.70;;;;;;5015531;28;20451;-70
2023/06/28 04:43:14;;;;;;;2.90;2.40;;;19.80;95.70;;;;;;5013065;28;20439;-70
2023/06/28 04:45:41;;;;;;;3.57;2.77;;;19.80;95.50;;;;;;5015344;28;20742;-70
2023/06/28 04:48:07;;;;;;;3.23;2.80;;;19.90;95.30;;;;;;5015809;28;20163;-70
2023/06/28 04:50:34;;;;;;;7.97;3.03;;;19.90;95.30;;;;;;5015245;28;20844;-70
2023/06/28 04:53:00;;;;;;;4.17;2.90;;;19.90;95.30;;;;;;5012881;28;20447;-70
2023/06/28 04:55:32;;;;;;;7.20;3.50;;;19.80;95.00;;;;;;5014542;28;20860;-70
2023/06/28 04:58:00;;;;;;;3.27;2.50;;;19.80;95.20;;;;;;5015329;28;20395;-69
2023/06/28 05:00:25;;;;;;;4.57;4.03;;;19.90;95.40;;;;;;5015155;28;20983;-70
2023/06/28 05:02:51;;;;;;;4.03;3.27;;;20.00;95.10;;;;;;5017575;28;20423;-70
2023/06/28 05:05:17;;;;;;;3.77;2.57;;;20.00;94.80;;;;;;5015092;28;20627;-69
2023/06/28 05:07:43;;;;;;;6.80;2.67;;;20.10;94.70;;;;;;5015754;28;20219;-70
2023/06/28 05:10:09;;;;;;;3.83;2.77;;;20.20;94.80;;;;;;5014416;28;20419;-70
2023/06/28 05:12:35;;;;;;;2.77;2.47;;;20.30;94.20;;;;;;5014942;28;20657;-70
2023/06/28 05:15:02;;;;;;;5.80;2.80;;;20.40;94.30;;;;;;5014906;28;20410;-69
2023/06/28 05:17:27;;;;;;;3.40;2.87;;;20.50;94.10;;;;;;5015232;28;20505;-70
2023/06/28 05:19:53;;;;;;;8.27;3.00;;;20.40;94.20;;;;;;5014986;28;21057;-70
2023/06/28 05:22:21;;;;;;;6.67;3.03;;;20.50;93.90;;;;;;5015039;28;20187;-69
2023/06/28 05:24:47;;;;;;;3.60;2.70;;;20.40;93.40;;;;;;5014430;28;20180;-70
2023/06/28 05:27:13;;;;;;;4.07;3.00;;;20.40;93.40;;;;;;5014940;28;20407;-69
2023/06/28 05:29:39;;;;;;;5.70;3.40;;;20.40;93.70;;;;;;5014293;28;20928;-70
2023/06/28 05:32:04;;;;;;;2.53;2.27;;;20.50;93.70;;;;;;5014819;28;20286;-70
2023/06/28 05:34:30;;;;;;;3.17;2.37;;;20.60;93.40;;;;;;5014152;28;20188;-68
2023/06/28 05:36:55;;;;;;;4.50;3.30;;;20.70;93.10;;;;;;5013299;28;20179;-69
2023/06/28 05:39:21;;;;;;;5.03;2.63;;;20.60;92.90;;;;;;5012322;28;20311;-68
2023/06/28 05:41:48;;;;;;;4.43;3.07;;;20.90;92.80;;;;;;5013578;28;20183;-68
2023/06/28 05:44:17;;;;;;;4.10;2.87;;;20.90;92.30;;;;;;5014722;28;20180;-69
2023/06/28 05:46:43;;;;;;;4.93;3.00;;;20.70;92.50;;;;;;5014360;28;20406;-69
2023/06/28 05:49:08;;;;;;;6.33;2.70;;;20.70;92.50;;;;;;5014728;28;20403;-68
2023/06/28 05:51:34;;;;;;;5.33;2.60;;;20.60;92.50;;;;;;5014805;28;20212;-68
2023/06/28 05:54:00;;;;;;;5.30;2.43;;;20.80;92.60;;;;;;5014148;28;20156;-70
2023/06/28 05:56:27;;;;;;;6.20;2.80;;;20.90;92.60;;;;;;5012852;28;20427;-68
2023/06/28 05:58:53;;;;;;;6.17;2.70;;;21.00;91.90;;;;;;5013920;28;20481;-69
2023/06/28 06:01:19;;;;;;;5.80;3.37;;;21.00;91.80;;;;;;5014200;28;20454;-69
2023/06/28 06:03:44;;;;;;;3.67;2.50;;;21.20;91.60;;;;;;5014919;28;20164;-69
2023/06/28 06:06:10;;;;;;;5.47;2.97;;;21.10;91.00;;;;;;5014265;28;20175;-67
2023/06/28 06:08:35;;;;;;;4.47;2.70;;;21.10;91.10;;;;;;5014152;28;20171;-69
2023/06/28 06:11:03;;;;;;;6.23;3.40;;;21.30;91.10;;;;;;5013353;28;20176;-68
2023/06/28 06:13:29;;;;;;;3.70;2.40;;;21.10;90.90;;;;;;5013830;28;20611;-68
2023/06/28 06:15:54;;;;;;;4.10;2.60;;;21.10;91.00;;;;;;5013534;28;20407;-68
2023/06/28 06:18:20;;;;;;;4.73;3.00;;;21.30;91.10;;;;;;5013915;28;20406;-68
2023/06/28 06:20:46;;;;;;;5.33;2.77;;;21.20;91.00;;;;;;5013787;28;20659;-67
2023/06/28 06:23:12;;;;;;;6.30;3.37;;;21.20;91.60;;;;;;5013495;28;20253;-67
2023/06/28 06:25:37;;;;;;;3.93;2.77;;;21.40;90.80;;;;;;5012907;28;20176;-68
2023/06/28 06:28:03;;;;;;;3.10;2.30;;;21.30;90.30;;;;;;5013504;28;20395;-68
2023/06/28 06:30:29;;;;;;;7.37;3.20;;;21.30;90.40;;;;;;5013498;28;20542;-68
2023/06/28 06:32:54;;;;;;;4.90;2.93;;;21.30;90.50;;;;;;5013573;28;20219;-66
2023/06/28 06:35:20;;;;;;;6.33;2.93;;;21.40;89.80;;;;;;5013524;28;20480;-68
2023/06/28 06:37:46;;;;;;;3.10;2.60;;;21.00;90.00;;;;;;5013351;28;20254;-68
2023/06/28 06:40:12;;;;;;;3.10;2.53;;;21.20;90.20;;;;;;5012919;28;20239;-68
2023/06/28 06:42:39;;;;;;;3.90;2.93;;;21.70;89.20;;;;;;5013056;28;20180;-67
2023/06/28 06:45:05;;;;;;;4.27;2.53;;;21.90;89.30;;;;;;5013710;28;20179;-67
2023/06/28 06:47:31;;;;;;;4.67;2.50;;;21.60;88.60;;;;;;5013416;28;20414;-66
2023/06/28 06:49:57;;;;;;;4.07;2.73;;;21.70;88.80;;;;;;5013495;28;20407;-67
2023/06/28 06:52:22;;;;;;;7.43;3.23;;;21.80;89.20;;;;;;5011642;28;20204;-67
2023/06/28 06:54:48;;;;;;;3.93;2.77;;;21.70;89.40;;;;;;5011757;28;20215;-67
2023/06/28 06:57:15;;;;;;;5.30;2.70;;;21.90;89.40;;;;;;5012907;28;20182;-67
2023/06/28 06:59:40;;;;;;;4.43;2.43;;;22.30;87.80;;;;;;5012640;28;20268;-67
2023/06/28 07:02:06;;;;;;;4.70;2.87;;;22.10;88.00;;;;;;5012812;28;20431;-69
2023/06/28 07:04:32;;;;;;;5.23;3.27;;;22.30;88.10;;;;;;5015174;28;20753;-67
2023/06/28 07:06:58;;;;;;;4.40;2.73;;;22.50;86.50;;;;;;5012456;28;20255;-68
2023/06/28 07:09:24;;;;;;;5.30;2.73;;;22.50;84.90;;;;;;5012804;28;20446;-67
2023/06/28 07:11:50;;;;;;;3.40;2.67;;;22.40;83.40;;;;;;5013482;28;20210;-67
2023/06/28 07:14:15;;;;;;;2.60;2.03;;;22.50;83.10;;;;;;5012804;28;20776;-68
2023/06/28 07:16:44;;;;;;;5.90;2.93;;;22.20;81.80;;;;;;5012412;28;20220;-69
2023/06/28 07:19:11;;;;;;;6.67;2.43;;;22.20;83.10;;;;;;5012953;28;20268;-69
2023/06/28 07:21:36;;;;;;;4.00;2.27;;;22.00;83.60;;;;;;5012578;28;20427;-70
2023/06/28 07:24:02;;;;;;;2.73;2.10;;;22.30;82.50;;;;;;5012906;28;20415;-68
2023/06/28 07:26:28;;;;;;;4.25;2.80;;;22.40;82.50;;;;;;5011593;28;20407;-70
2023/06/28 07:28:54;;;;;;;3.57;2.50;;;22.50;82.20;;;;;;5012785;28;20175;-67
2023/06/28 07:31:20;;;;;;;4.40;2.43;;;22.40;80.20;;;;;;5013375;28;20196;-67
2023/06/28 07:33:46;;;;;;;4.43;2.20;;;22.50;81.20;;;;;;5012662;28;20502;-68
2023/06/28 07:36:11;;;;;;;3.10;1.73;;;22.70;81.40;;;;;;5012765;28;20172;-67
2023/06/28 07:38:37;;;;;;;3.23;1.87;;;22.30;81.00;;;;;;5012963;28;20251;-65
2023/06/28 07:41:03;;;;;;;4.23;2.50;;;21.90;81.40;;;;;;5012497;28;20565;-67
2023/06/28 07:43:28;;;;;;;4.23;2.50;;;21.80;81.50;;;;;;5012447;28;20171;-66
2023/06/28 07:45:58;;;;;;;4.83;2.47;;;21.80;82.10;;;;;;5012572;28;20309;-67
2023/06/28 07:48:25;;;;;;;4.83;2.30;;;21.80;82.50;;;;;;5012788;28;20161;-67
2023/06/28 07:50:50;;;;;;;4.10;2.47;;;22.00;82.60;;;;;;5012474;28;20406;-67
2023/06/28 07:53:16;;;;;;;3.07;2.10;;;22.30;83.10;;;;;;5012302;28;20442;-68
2023/06/28 07:55:42;;;;;;;4.63;2.50;;;22.80;81.80;;;;;;5011943;28;20249;-68
2023/06/28 07:58:07;;;;;;;5.60;2.67;;;22.80;80.50;;;;;;5012703;28;20655;-68
2023/06/28 08:00:33;;;;;;;4.27;2.20;;;22.90;80.40;;;;;;5012509;28;20261;-66
2023/06/28 08:02:58;;;;;;;2.73;2.30;;;22.90;79.20;;;;;;5012244;28;20207;-67
2023/06/28 08:05:25;;;;;;;5.33;1.90;;;22.90;79.60;;;;;;5012519;28;20562;-70
2023/06/28 08:07:53;;;;;;;4.13;2.60;;;22.80;79.40;;;;;;5011132;28;20168;-69
2023/06/28 08:10:19;;;;;;;7.43;2.80;;;22.70;79.50;;;;;;5011746;28;20933;-70
2023/06/28 08:12:44;;;;;;;4.43;2.50;;;22.50;79.80;;;;;;5012602;28;20426;-69
2023/06/28 08:15:10;;;;;;;3.90;2.03;;;22.80;79.50;;;;;;5012460;28;20168;-68
2023/06/28 08:17:36;;;;;;;4.60;2.30;;;23.10;78.80;;;;;;5012305;28;20180;-69
2023/06/28 08:20:02;;;;;;;4.77;2.73;;;23.40;78.60;;;;;;5015190;28;20199;-69
2023/06/28 08:22:27;;;;;;;4.60;2.13;;;23.40;77.60;;;;;;5015749;28;20566;-68
2023/06/28 08:24:53;;;;;;;6.60;3.70;;;23.60;77.10;;;;;;5015352;28;20182;-70
2023/06/28 08:27:18;;;;;;;3.10;2.20;;;23.10;77.00;;;;;;5015710;28;20168;-68
2023/06/28 08:29:44;;;;;;;2.90;2.10;;;23.20;77.30;;;;;;5015920;28;20528;-68
2023/06/28 08:32:09;;;;;;;4.77;3.03;;;23.50;77.60;;;;;;5015491;28;20192;-69
2023/06/28 08:34:35;;;;;;;3.47;1.87;;;23.50;76.40;;;;;;5015849;28;20536;-68
2023/06/28 08:37:01;;;;;;;3.60;2.23;;;23.20;78.00;;;;;;5015317;28;20234;-68
2023/06/28 08:39:26;;;;;;;5.70;2.73;;;23.00;78.00;;;;;;5015472;28;20246;-68
2023/06/28 08:41:52;;;;;;;4.23;2.43;;;23.00;77.90;;;;;;5015198;28;20601;-68
2023/06/28 08:44:20;;;;;;;5.30;2.40;;;23.20;77.70;;;;;;5015633;28;20195;-69
2023/06/28 08:46:48;;;;;;;7.60;2.53;;;23.40;77.00;;;;;;5015380;28;20599;-69
2023/06/28 08:49:14;;;;;;;4.73;2.87;;;23.30;78.30;;;;;;5015542;28;20438;-68
2023/06/28 08:51:40;;;;;;;6.33;2.50;;;23.20;77.90;;;;;;5015165;28;20521;-69
2023/06/28 08:54:07;;;;;;;5.33;2.50;;;22.90;78.30;;;;;;5015189;28;20434;-69
2023/06/28 08:56:33;;;;;;;6.87;2.77;;;22.90;79.40;;;;;;5014095;28;20403;-67
2023/06/28 08:59:00;;;;;;;4.00;2.27;;;23.40;78.40;;;;;;5015293;28;20827;-67
2023/06/28 09:01:26;;;;;;;4.73;2.50;;;23.70;77.30;;;;;;5017339;28;20426;-68
2023/06/28 09:03:54;;;;;;;7.10;3.17;;;23.90;76.70;;;;;;5015258;28;20713;-69
2023/06/28 09:06:21;;;;;;;4.33;2.37;;;24.20;75.80;;;;;;5015107;28;20164;-69
2023/06/28 09:08:47;;;;;;;5.50;2.73;;;24.00;76.40;;;;;;5014709;28;20476;-68
2023/06/28 09:11:16;;;;;;;7.30;3.07;;;24.20;75.70;;;;;;5014410;28;20465;-67
2023/06/28 09:13:42;;;;;;;5.50;3.13;;;24.10;76.40;;;;;;5015268;28;20411;-68
2023/06/28 09:16:11;;;;;;;4.80;2.50;;;24.20;74.60;;;;;;5014839;28;20778;-69
2023/06/28 09:18:37;;;;;;;3.90;2.60;;;24.00;75.90;;;;;;5014987;28;20429;-69
2023/06/28 09:21:03;;;;;;;8.07;2.80;;;24.50;75.80;;;;;;5015185;28;20442;-68
2023/06/28 09:23:30;;;;;;;3.03;2.30;;;24.40;75.00;;;;;;5014955;28;20689;-68
2023/06/28 09:25:56;;;;;;;5.23;2.70;;;24.40;75.10;;;;;;5014208;28;20410;-69
2023/06/28 09:28:24;;;;;;;3.77;1.93;;;23.70;75.90;;;;;;5014606;28;20408;-68
2023/06/28 09:30:56;;;;;;;4.70;2.33;;;23.60;75.80;;;;;;5014224;28;20411;-68
2023/06/28 09:33:22;;;;;;;5.77;2.80;;;24.10;75.30;;;;;;5014763;28;20752;-68
2023/06/28 09:35:59;;;;;;;5.13;3.00;;;24.60;74.30;;;;;;5014707;28;20421;-66
2023/06/28 09:38:26;;;;;;;4.83;2.33;;;25.20;72.80;;;;;;5014455;28;20815;-68
2023/06/28 09:40:59;;;;;;;4.00;2.33;;;25.10;72.10;;;;;;5014009;28;20453;-67
2023/06/28 09:43:31;;;;;;;3.00;1.97;;;25.40;72.90;;;;;;5014229;28;20490;-68
2023/06/28 09:45:57;;;;;;;4.77;2.50;;;25.50;71.60;;;;;;5014269;28;20879;-67
2023/06/28 09:48:24;;;;;;;5.00;2.47;;;24.90;71.50;;;;;;5014667;28;20407;-70
2023/06/28 09:50:50;;;;;;;3.73;2.17;;;24.70;74.30;;;;;;5012894;28;20269;-69
2023/06/28 09:53:21;;;;;;;4.77;2.20;;;24.70;72.20;;;;;;5013949;28;20489;-69
2023/06/28 09:55:49;;;;;;;3.53;2.10;;;24.70;73.20;;;;;;5013106;28;20179;-69
2023/06/28 09:58:20;;;;;;;6.83;2.47;;;24.50;72.70;;;;;;5014341;28;20418;-69
2023/06/28 10:00:48;;;;;;;4.50;1.83;;;24.90;72.40;;;;;;5014265;28;20435;-69
2023/06/28 10:03:15;;;;;;;3.43;2.10;;;25.60;71.00;;;;;;5014367;28;20446;-70
2023/06/28 10:05:43;;;;;;;5.90;2.17;;;25.60;70.80;;;;;;5014070;28;20749;-68
2023/06/28 10:08:10;;;;;;;3.40;2.10;;;24.90;71.20;;;;;;5013849;28;20394;-69
2023/06/28 10:10:37;;;;;;;2.83;2.00;;;24.60;72.80;;;;;;5013390;28;20983;-69
2023/06/28 10:13:06;;;;;;;4.20;2.40;;;24.80;72.60;;;;;;5013702;28;20933;-68
2023/06/28 10:15:40;;;;;;;3.90;2.20;;;24.90;72.10;;;;;;5013680;28;20752;-67
2023/06/28 10:18:06;;;;;;;4.60;2.40;;;24.70;72.10;;;;;;5013840;28;20396;-67
2023/06/28 10:20:31;;;;;;;2.80;2.00;;;25.00;72.20;;;;;;5013553;28;20524;-68
2023/06/28 10:22:59;;;;;;;3.30;2.40;;;25.50;71.10;;;;;;5013616;28;20180;-68
2023/06/28 10:25:26;;;;;;;5.13;2.23;;;24.60;71.90;;;;;;5013302;28;20172;-68
2023/06/28 10:27:53;;;;;;;5.90;2.67;;;24.50;73.60;;;;;;5013954;28;20399;-68
2023/06/28 10:30:21;;;;;;;3.00;2.20;;;24.60;72.70;;;;;;5013811;28;20485;-67
2023/06/28 10:32:47;;;;;;;6.43;2.30;;;24.50;73.00;;;;;;5013588;28;20469;-67
2023/06/28 10:35:13;;;;;;;4.10;2.00;;;24.50;73.10;;;;;;5013624;28;20936;-65
2023/06/28 10:37:39;;;;;;;5.67;2.70;;;24.00;73.90;;;;;;5013448;28;20406;-67
2023/06/28 10:40:08;;;;;;;4.63;2.20;;;24.30;75.00;;;;;;5013280;28;20790;-68
2023/06/28 10:42:41;;;;;;;4.50;2.40;;;24.30;73.60;;;;;;5012661;28;20532;-67
2023/06/28 10:45:08;;;;;;;5.30;2.80;;;24.60;73.20;;;;;;5013392;28;20411;-67
2023/06/28 10:47:35;;;;;;;3.17;2.07;;;25.20;73.10;;;;;;5013630;28;20407;-68
2023/06/28 10:50:08;;;;;;;2.57;2.23;;;25.40;71.10;;;;;;5013445;28;20403;-67
2023/06/28 10:52:34;;;;;;;6.33;2.60;;;25.00;71.30;;;;;;5012742;28;20530;-67
2023/06/28 10:55:03;;;;;;;5.80;2.50;;;25.00;72.10;;;;;;5012370;28;20435;-67
2023/06/28 10:57:38;;;;;;;4.80;2.50;;;25.00;71.20;;;;;;5013046;28;20490;-66
2023/06/28 11:00:44;;;;;;;4.00;2.53;;;25.00;72.10;;;;;;5029708;28;20451;-66
2023/06/28 11:03:11;;;;;;;5.77;2.10;;;25.20;71.70;;;;;;4934399;29;20917;-66
2023/06/28 11:05:53;;;;;;;4.37;2.40;;;25.60;70.20;;;;;;4933348;29;20421;-67
2023/06/28 11:08:21;;;;;;;2.70;2.00;;;26.10;70.70;;;;;;4981084;28;20257;-67
2023/06/28 11:10:49;;;;;;;4.57;2.50;;;26.40;69.10;;;;;;5012398;28;20438;-67
2023/06/28 11:13:32;;;;;;;4.73;2.00;;;26.10;68.30;;;;;;5013063;28;20442;-65
2023/06/28 11:16:16;;;;;;;3.50;2.43;;;25.80;69.00;;;;;;5013509;28;20418;-67
2023/06/28 11:18:42;;;;;;;3.30;2.30;;;25.50;69.40;;;;;;5013147;28;20870;-67
2023/06/28 11:21:24;;;;;;;3.30;1.83;;;25.90;70.00;;;;;;5013020;28;20513;-67
2023/06/28 11:23:54;;;;;;;4.43;2.27;;;26.30;69.20;;;;;;5013215;28;20255;-68
2023/06/28 11:26:34;;;;;;;2.50;2.03;;;26.40;67.80;;;;;;5012310;28;20411;-67
2023/06/28 11:29:00;;;;;;;4.30;2.30;;;26.40;66.90;;;;;;5013021;28;20403;-67
2023/06/28 11:31:38;;;;;;;6.30;2.30;;;26.30;68.20;;;;;;5012701;28;20427;-67
2023/06/28 11:34:04;;;;;;;2.90;1.90;;;26.20;66.80;;;;;;5013198;28;20153;-67
2023/06/28 11:36:31;;;;;;;2.43;1.60;;;26.40;67.40;;;;;;5012688;28;20539;-68
2023/06/28 11:38:56;;;;;;;3.13;1.97;;;27.30;65.30;;;;;;5013000;28;20178;-69
2023/06/28 11:41:22;;;;;;;4.10;2.00;;;28.40;63.10;;;;;;5012079;28;20517;-69
2023/06/28 11:43:48;;;;;;;3.30;2.20;;;29.60;59.80;;;;;;5012626;28;20172;-68
2023/06/28 11:46:18;;;;;;;2.53;1.83;;;30.80;57.70;;;;;;5012868;28;20545;-68
2023/06/28 11:48:45;;;;;;;2.87;1.60;;;32.60;55.40;;;;;;5013491;28;20430;-68
2023/06/28 11:51:12;;;;;;;5.13;1.70;;;33.40;51.70;;;;;;5012745;28;20410;-68
2023/06/28 11:53:38;;;;;;;3.10;2.10;;;34.60;49.60;;;;;;5016151;28;20406;-68
2023/06/28 11:56:04;;;;;;;2.70;1.80;;;33.30;50.20;;;;;;5014898;28;20505;-68
2023/06/28 11:58:30;;;;;;;5.23;2.23;;;32.10;51.40;;;;;;5016682;28;20471;-68
2023/06/28 12:00:57;;;;;;;5.83;2.03;;;28.80;56.40;;;;;;5016056;28;20740;-69
2023/06/28 12:03:36;;;;;;;2.10;1.90;;;27.40;59.10;;;;;;5016290;28;20924;-68
2023/06/28 12:06:10;;;;;;;3.07;2.27;;;27.50;59.90;;;;;;5017369;28;20394;-68
2023/06/28 12:08:37;;;;;;;4.13;1.90;;;29.10;58.60;;;;;;5016028;28;20418;-68
2023/06/28 12:11:15;;;;;;;3.30;1.60;;;31.30;54.70;;;;;;5015409;28;20418;-67
2023/06/28 12:13:42;;;;;;;4.27;2.00;;;31.20;53.10;;;;;;5016234;28;20509;-67
2023/06/28 12:16:18;;;;;;;5.53;2.13;;;31.60;53.40;;;;;;5016011;28;20422;-68
2023/06/28 12:18:57;;;;;;;3.43;2.20;;;33.90;49.70;;;;;;5016139;28;20493;-69
2023/06/28 12:21:28;;;;;;;3.47;1.93;;;34.80;48.50;;;;;;5015866;28;20442;-67
2023/06/28 12:24:10;;;;;;;5.00;1.80;;;34.20;47.40;;;;;;5016371;28;20395;-70
2023/06/28 12:26:36;;;;;;;4.03;2.00;;;35.20;46.10;;;;;;5015461;28;20545;-67
2023/06/28 12:29:01;;;;;;;4.17;1.67;;;34.10;47.50;;;;;;5016175;28;20438;-70
2023/06/28 12:31:44;;;;;;;2.40;1.90;;;34.00;47.80;;;;;;5016519;28;20203;-69
2023/06/28 12:34:10;;;;;;;3.73;2.33;;;31.10;51.20;;;;;;5016219;28;20160;-68
2023/06/28 12:36:39;;;;;;;6.33;1.97;;;30.70;52.50;;;;;;5015604;28;20916;-72
2023/06/28 12:39:05;;;;;;;3.60;1.80;;;30.70;52.30;;;;;;5015663;28;20203;-66
2023/06/28 12:41:31;;;;;;;3.50;1.77;;;30.20;53.20;;;;;;5015175;28;20422;-66
2023/06/28 12:43:58;;;;;;;2.17;1.43;;;30.20;53.30;;;;;;5015570;28;20414;-66
2023/06/28 12:46:25;;;;;;;4.77;2.17;;;31.20;51.80;;;;;;5015573;28;20176;-67